createdAt,value
2019-02-25T00:00:02.422Z,1039.0
2019-02-25T00:05:02.987Z,1039.08
2019-02-25T00:10:02.415Z,1039.21
2019-02-25T00:15:02.767Z,1039.12
2019-02-25T00:20:03.209Z,1039.05
2019-02-25T00:25:02.616Z,1038.86
2019-02-25T00:30:02.963Z,1038.9
2019-02-25T00:35:03.307Z,1038.83
2019-02-25T00:40:02.713Z,1038.96
2019-02-25T00:45:03.069Z,1038.92
2019-02-25T00:50:02.484Z,1038.88
2019-02-25T00:55:02.827Z,1038.78
2019-02-25T01:00:03.170Z,1038.82
2019-02-25T01:05:02.575Z,1038.92
2019-02-25T01:10:04.069Z,1038.79
2019-02-25T01:15:02.461Z,1038.84
2019-02-25T01:20:02.919Z,1038.84
2019-02-25T01:25:03.339Z,1038.73
2019-02-25T01:30:02.790Z,1038.68
2019-02-25T01:35:03.232Z,1038.58
2019-02-25T01:40:02.644Z,1038.61
2019-02-25T01:45:03.108Z,1038.65
2019-02-25T01:50:02.501Z,1038.61
2019-02-25T01:55:02.952Z,1038.71
2019-02-25T02:00:03.288Z,1038.79
2019-02-25T02:05:02.706Z,1038.8
2019-02-25T02:10:03.161Z,1038.7
2019-02-25T02:15:02.531Z,1038.68
2019-02-25T02:20:02.922Z,1038.56
2019-02-25T02:25:03.361Z,1038.45
2019-02-25T02:30:02.771Z,1038.53
2019-02-25T02:35:03.227Z,1038.65
2019-02-25T02:40:02.659Z,1038.55
2019-02-25T02:45:03.051Z,1038.46
2019-02-25T02:50:02.478Z,1038.51
2019-02-25T02:55:02.914Z,1038.44
2019-02-25T03:00:03.357Z,1038.41
2019-02-25T03:05:02.769Z,1038.43
2019-02-25T03:10:03.224Z,1038.44
2019-02-25T03:15:02.628Z,1038.44
2019-02-25T03:20:02.983Z,1038.44
2019-02-25T03:25:02.324Z,1038.4
2019-02-25T03:30:02.754Z,1038.42
2019-02-25T03:35:03.184Z,1038.5
2019-02-25T03:40:02.593Z,1038.44
2019-02-25T03:45:02.955Z,1038.54
2019-02-25T03:50:02.363Z,1038.67
2019-02-25T03:55:01.904Z,1038.59
2019-02-25T04:00:03.245Z,1038.55
2019-02-25T04:05:02.659Z,1038.54
2019-02-25T04:10:03.113Z,1038.46
2019-02-25T04:15:02.524Z,1038.48
2019-02-25T04:20:02.977Z,1038.51
2019-02-25T04:25:02.327Z,1038.44
2019-02-25T04:30:02.732Z,1038.41
2019-02-25T04:35:03.078Z,1038.37
2019-02-25T04:40:02.487Z,1038.34
2019-02-25T04:45:02.837Z,1038.38
2019-02-25T04:50:03.176Z,1038.31
2019-02-25T04:55:02.599Z,1038.29
2019-02-25T05:00:02.933Z,1038.26
2019-02-25T05:05:03.277Z,1038.34
2019-02-25T05:10:02.694Z,1038.44
2019-02-25T05:15:03.041Z,1038.55
2019-02-25T05:20:02.373Z,1038.42
2019-02-25T05:25:02.798Z,1038.46
2019-02-25T05:30:03.031Z,1038.58
2019-02-25T05:35:02.458Z,1038.56
2019-02-25T05:40:02.904Z,1038.55
2019-02-25T05:45:03.256Z,1038.46
2019-02-25T05:50:02.654Z,1038.5
2019-02-25T05:55:03.026Z,1038.47
2019-02-25T06:00:02.863Z,1038.42
2019-02-25T06:05:03.315Z,1038.38
2019-02-25T06:10:02.828Z,1038.59
2019-02-25T06:15:03.271Z,1038.48
2019-02-25T06:20:02.650Z,1038.47
2019-02-25T06:25:03.009Z,1038.51
2019-02-25T06:30:02.431Z,1038.53
2019-02-25T06:35:02.856Z,1038.5
2019-02-25T06:40:03.305Z,1038.51
2019-02-25T06:45:02.753Z,1038.59
2019-02-25T06:50:03.179Z,1038.64
2019-02-25T06:55:02.978Z,1038.78
2019-02-25T07:00:02.316Z,1038.79
2019-02-25T07:05:02.650Z,1038.77
2019-02-25T07:10:03.100Z,1038.89
2019-02-25T07:15:02.512Z,1038.96
2019-02-25T07:20:02.993Z,1038.98
2019-02-25T07:25:02.371Z,1038.97
2019-02-25T07:30:02.714Z,1039.04
2019-02-25T07:35:03.140Z,1039.16
2019-02-25T07:40:02.606Z,1039.33
2019-02-25T07:45:03.024Z,1039.34
2019-02-25T07:50:02.437Z,1039.43
2019-02-25T07:55:02.889Z,1039.36
2019-02-25T08:00:03.568Z,1039.47
2019-02-25T08:05:02.945Z,1039.45
2019-02-25T08:10:02.405Z,1039.46
2019-02-25T08:15:02.807Z,1039.32
2019-02-25T08:20:02.456Z,1039.36
2019-02-25T08:25:02.803Z,1039.37
2019-02-25T08:30:03.227Z,1039.39
2019-02-25T08:35:02.637Z,1039.54
2019-02-25T08:40:03.129Z,1039.55
2019-02-25T08:45:02.495Z,1039.46
2019-02-25T08:50:02.944Z,1039.49
2019-02-25T08:55:03.389Z,1039.58
2019-02-25T09:00:02.797Z,1039.61
2019-02-25T09:05:03.152Z,1039.72
2019-02-25T09:10:02.568Z,1039.72
2019-02-25T09:15:02.920Z,1039.83
2019-02-25T09:20:03.359Z,1039.89
2019-02-25T09:25:02.765Z,1039.89
2019-02-25T09:30:03.117Z,1039.85
2019-02-25T09:35:02.429Z,1039.73
2019-02-25T09:40:02.876Z,1039.75
2019-02-25T09:45:03.320Z,1039.77
2019-02-25T09:50:02.729Z,1039.8
2019-02-25T09:55:03.092Z,1039.7
2019-02-25T10:00:02.487Z,1039.66
2019-02-25T10:05:02.839Z,1039.63
2019-02-25T10:10:03.288Z,1039.67
2019-02-25T10:15:02.623Z,1039.6
2019-02-25T10:20:03.050Z,1039.47
2019-02-25T10:25:01.674Z,1039.46
2019-02-25T10:30:04.117Z,1039.45
2019-02-25T10:35:02.629Z,1039.43
2019-02-25T10:40:03.072Z,1039.35
2019-02-25T10:45:03.156Z,1039.26
2019-02-25T10:50:03.214Z,1039.32
2019-02-25T10:55:03.285Z,1039.26
2019-02-25T11:00:04.862Z,1039.3
2019-02-25T11:05:02.938Z,1039.22
2019-02-25T11:10:02.353Z,1039.1
2019-02-25T11:15:02.716Z,1039.01
2019-02-25T11:20:03.796Z,1038.88
2019-02-25T11:25:03.107Z,1038.99
2019-02-25T11:30:02.492Z,1039.03
2019-02-25T11:35:04.067Z,1038.84
2019-02-25T11:40:04.382Z,1038.85
2019-02-25T11:45:04.489Z,1038.82
2019-02-25T11:50:03.070Z,1038.78
2019-02-25T11:55:02.553Z,1038.62
2019-02-25T12:00:02.930Z,1038.5
2019-02-25T12:05:03.378Z,1038.35
2019-02-25T12:10:02.892Z,1038.11
2019-02-25T12:15:03.344Z,1037.95
2019-02-25T12:20:02.722Z,1037.87
2019-02-25T12:25:03.110Z,1037.75
2019-02-25T12:30:02.482Z,1037.71
2019-02-25T12:35:02.953Z,1037.62
2019-02-25T12:40:02.450Z,1037.68
2019-02-25T12:45:02.791Z,1037.64
2019-02-25T12:50:03.136Z,1037.63
2019-02-25T12:55:02.546Z,1037.57
2019-02-25T13:00:02.993Z,1037.51
2019-02-25T13:05:02.413Z,1037.43
2019-02-25T13:10:02.854Z,1037.41
2019-02-25T13:15:12.879Z,1037.33
2019-02-25T13:20:02.845Z,1037.31
2019-02-25T13:25:03.650Z,1037.3
2019-02-25T13:30:01.957Z,1037.2
2019-02-25T13:35:02.055Z,1037.29
2019-02-25T13:40:02.541Z,1037.21
2019-02-25T13:45:02.981Z,1037.24
2019-02-25T13:50:02.716Z,1037.25
2019-02-25T13:55:03.148Z,1037.21
2019-02-25T14:00:02.589Z,1037.22
2019-02-25T14:05:03.005Z,1037.19
2019-02-25T14:10:02.438Z,1037.11
2019-02-25T14:15:02.878Z,1037.1
2019-02-25T14:20:03.312Z,1037.17
2019-02-25T14:25:03.620Z,1037.2
2019-02-25T14:30:03.179Z,1037.16
2019-02-25T14:35:02.795Z,1037.21
2019-02-25T14:40:04.076Z,1037.15
2019-02-25T14:45:04.581Z,1037.14
2019-02-25T14:50:02.913Z,1037.16
2019-02-25T14:55:04.904Z,1037.22
2019-02-25T15:00:02.991Z,1037.26
2019-02-25T15:05:02.439Z,1037.25
2019-02-25T15:10:04.252Z,1037.22
2019-02-25T15:15:03.106Z,1037.3
2019-02-25T15:20:03.108Z,1037.25
2019-02-25T15:25:02.553Z,1037.26
2019-02-25T15:30:02.982Z,1037.26
2019-02-25T15:35:02.379Z,1037.25
2019-02-25T15:40:02.978Z,1037.31
2019-02-25T15:45:02.411Z,1037.3
2019-02-25T15:50:04.397Z,1037.24
2019-02-25T15:55:02.633Z,1037.16
2019-02-25T16:00:03.221Z,1037.2
2019-02-25T16:05:04.192Z,1037.13
2019-02-25T16:10:04.319Z,1037.19
2019-02-25T16:15:02.849Z,1037.25
2019-02-25T16:20:04.434Z,1037.32
2019-02-25T16:25:04.985Z,1037.34
2019-02-25T16:30:03.683Z,1037.31
2019-02-25T16:35:04.615Z,1037.38
2019-02-25T16:40:03.848Z,1037.3
2019-02-25T16:45:04.151Z,1037.29
2019-02-25T16:50:03.364Z,1037.24
2019-02-25T16:55:01.920Z,1037.29
2019-02-25T17:00:05.136Z,1037.28
2019-02-25T17:05:02.588Z,1037.35
2019-02-25T17:10:03.324Z,1037.25
2019-02-25T17:15:02.434Z,1037.31
2019-02-25T17:20:02.893Z,1037.32
2019-02-25T17:25:07.507Z,1037.38
2019-02-25T17:30:02.778Z,1037.39
2019-02-25T17:35:05.148Z,1037.37
2019-02-25T17:40:05.716Z,1037.34
2019-02-25T17:45:04.616Z,1037.34
2019-02-25T17:50:04.477Z,1037.35
2019-02-25T17:55:04.595Z,1037.34
2019-02-25T18:00:02.671Z,1037.31
2019-02-25T18:05:03.293Z,1037.28
2019-02-25T18:10:03.532Z,1037.22
2019-02-25T18:15:03.509Z,1037.24
2019-02-25T18:20:02.562Z,1037.25
2019-02-25T18:25:04.976Z,1037.26
2019-02-25T18:30:02.434Z,1037.24
2019-02-25T18:35:03.106Z,1037.23
2019-02-25T18:40:02.506Z,1037.29
2019-02-25T18:45:02.953Z,1037.3
2019-02-25T18:50:02.362Z,1037.33
2019-02-25T18:55:04.380Z,1037.31
2019-02-25T19:00:04.514Z,1037.3
2019-02-25T19:05:04.496Z,1037.27
2019-02-25T19:10:02.566Z,1037.23
2019-02-25T19:15:04.481Z,1037.29
2019-02-25T19:20:02.773Z,1037.28
2019-02-25T19:25:05.488Z,1037.23
2019-02-25T19:30:03.080Z,1037.19
2019-02-25T19:35:04.742Z,1037.17
2019-02-25T19:40:05.330Z,1037.16
2019-02-25T19:45:05.257Z,1037.21
2019-02-25T19:50:04.583Z,1037.15
2019-02-25T19:55:05.659Z,1037.11
2019-02-25T20:00:02.966Z,1037.14
2019-02-25T20:05:04.713Z,1037.04
2019-02-25T20:10:02.793Z,1036.98
2019-02-25T20:15:03.239Z,1037.04
2019-02-25T20:20:04.738Z,1037.02
2019-02-25T20:25:02.790Z,1036.95
2019-02-25T20:30:04.941Z,1036.92
2019-02-25T20:35:02.873Z,1036.81
2019-02-25T20:40:03.321Z,1036.83
2019-02-25T20:45:04.537Z,1036.78
2019-02-25T20:50:03.756Z,1036.73
2019-02-25T20:55:03.809Z,1036.71
2019-02-25T21:00:04.202Z,1036.56
2019-02-25T21:05:02.668Z,1036.52
2019-02-25T21:10:04.034Z,1036.52
2019-02-25T21:15:02.906Z,1036.51
2019-02-25T21:20:04.827Z,1036.58
2019-02-25T21:25:04.739Z,1036.44
2019-02-25T21:30:04.041Z,1036.5
2019-02-25T21:35:04.420Z,1036.49
2019-02-25T21:40:04.709Z,1036.52
2019-02-25T21:45:02.563Z,1036.56
2019-02-25T21:50:04.143Z,1036.64
2019-02-25T21:55:04.872Z,1036.61
2019-02-25T22:00:05.037Z,1036.62
2019-02-25T22:05:02.546Z,1036.63
2019-02-25T22:10:02.946Z,1036.68
2019-02-25T22:15:03.334Z,1036.6
2019-02-25T22:20:04.796Z,1036.6
2019-02-25T22:25:06.058Z,1036.67
2019-02-25T22:30:04.702Z,1036.66
2019-02-25T22:35:04.632Z,1036.67
2019-02-25T22:40:01.523Z,1036.71
2019-02-25T22:45:02.044Z,1036.76
2019-02-25T22:50:04.143Z,1036.78
2019-02-25T22:55:05.933Z,1036.71
2019-02-25T23:00:05.715Z,1036.69
2019-02-25T23:05:02.678Z,1036.58
2019-02-25T23:10:03.088Z,1036.66
2019-02-25T23:15:03.844Z,1036.46
2019-02-25T23:20:03.485Z,1036.44
2019-02-25T23:25:02.569Z,1036.32
2019-02-25T23:30:02.909Z,1036.27
2019-02-25T23:35:03.254Z,1036.17
2019-02-25T23:40:04.666Z,1036.19
2019-02-25T23:45:02.503Z,1036.28
2019-02-25T23:50:04.042Z,1036.31
2019-02-25T23:55:02.465Z,1036.25
